Time;durP1;ratioP1;P1;durP2;ratioP2;P2;SDS_P1;SDS_P2;PMS_P1;PMS_P2;Temp;Humidity;BMP_temperature;BMP_pressure;BME280_temperature;BME280_humidity;BME280_pressure;Samples;Min_cycle;Max_cycle;Signal;HPM_P1;HPM_P2
2021/09/01 00:00:28;;;;;;;;;;;9.90;99.90;;;;;;6218066;23;20335;-92
2021/09/01 00:03:15;;;;;;;;;;;9.90;99.90;;;;;;6217703;23;20227;-92
2021/09/01 00:06:03;;;;;;;;;;;9.90;99.90;;;;;;6196459;23;19924;-91
2021/09/01 00:08:55;;;;;;;;;;;9.90;99.90;;;;;;6220334;22;19919;-92
2021/09/01 00:11:43;;;;;;;;;;;10.00;99.90;;;;;;6216499;23;19951;-92
2021/09/01 00:14:30;;;;;;;;;;;10.00;99.90;;;;;;6217872;23;19924;-92
2021/09/01 00:17:17;;;;;;;;;;;10.10;99.90;;;;;;6220344;23;19998;-91
2021/09/01 00:20:06;;;;;;;;;;;10.00;99.90;;;;;;6217947;23;20002;-92
2021/09/01 00:22:57;;;;;;;;;;;9.90;99.90;;;;;;6198491;23;19931;-92
2021/09/01 00:25:44;;;;;;;;;;;9.90;99.90;;;;;;6221008;22;19927;-92
2021/09/01 00:28:31;;;;;;;;;;;9.90;99.90;;;;;;6217679;23;19924;-93
2021/09/01 00:31:18;;;;;;;;;;;9.90;99.90;;;;;;6200470;23;19920;-92
2021/09/01 00:34:08;;;;;;;;;;;10.00;99.90;;;;;;6198433;23;19927;-93
2021/09/01 00:36:55;;;;;;;;;;;10.00;99.90;;;;;;6218532;23;19920;-90
2021/09/01 00:39:43;;;;;;;;;;;10.00;99.90;;;;;;6219156;23;19960;-92
2021/09/01 00:42:33;;;;;;;;;;;10.00;99.90;;;;;;6219633;23;19920;-92
2021/09/01 00:45:21;;;;;;;;;;;10.00;99.90;;;;;;6221567;22;19936;-93
2021/09/01 00:48:11;;;;;;;;;;;9.90;99.90;;;;;;6203450;23;19982;-91
2021/09/01 00:50:58;;;;;;;;;;;9.80;99.90;;;;;;6229428;23;19920;-92
2021/09/01 00:53:46;;;;;;;;;;;9.70;99.90;;;;;;6230703;23;19938;-91
2021/09/01 00:56:34;;;;;;;;;;;9.70;99.90;;;;;;6221446;23;20011;-92
2021/09/01 00:59:25;;;;;;;;;;;9.60;99.90;;;;;;6196791;23;19951;-92
2021/09/01 01:02:13;;;;;;;;;;;9.60;99.90;;;;;;6220755;23;19979;-91
2021/09/01 01:05:00;;;;;;;;;;;9.50;99.90;;;;;;6198410;23;19927;-93
2021/09/01 01:07:48;;;;;;;;;;;9.50;99.90;;;;;;6220099;23;19960;-90
2021/09/01 01:10:35;;;;;;;;;;;9.60;99.90;;;;;;6221652;23;19919;-92
2021/09/01 01:13:22;;;;;;;;;;;9.50;99.90;;;;;;6219684;23;19978;-91
2021/09/01 01:16:12;;;;;;;;;;;9.50;99.90;;;;;;6220467;23;19974;-92
2021/09/01 01:19:03;;;;;;;;;;;9.40;99.90;;;;;;6219306;23;19931;-91
2021/09/01 01:21:51;;;;;;;;;;;9.40;99.90;;;;;;6222827;23;19931;-91
2021/09/01 01:25:07;;;;;;;;;;;9.40;99.90;;;;;;6199443;23;19951;-92
2021/09/01 01:27:54;;;;;;;;;;;9.40;99.90;;;;;;6200530;23;19992;-92
2021/09/01 01:30:42;;;;;;;;;;;9.40;99.90;;;;;;6192678;23;19920;-91
2021/09/01 01:33:29;;;;;;;;;;;9.40;99.90;;;;;;6192298;23;19921;-90
2021/09/01 01:36:19;;;;;;;;;;;9.40;99.90;;;;;;6197948;23;19963;-90
2021/09/01 01:39:06;;;;;;;;;;;9.50;99.90;;;;;;6195880;23;20059;-91
2021/09/01 01:41:56;;;;;;;;;;;9.50;99.90;;;;;;6167802;23;19924;-89
2021/09/01 01:44:44;;;;;;;;;;;9.40;99.90;;;;;;6190901;23;20047;-89
2021/09/01 01:47:31;;;;;;;;;;;9.40;99.90;;;;;;6192973;23;19932;-91
2021/09/01 01:50:18;;;;;;;;;;;9.30;99.90;;;;;;6191104;23;19983;-90
2021/09/01 01:53:06;;;;;;;;;;;9.30;99.90;;;;;;6191457;23;19928;-92
2021/09/01 01:55:53;;;;;;;;;;;9.40;99.90;;;;;;6171989;23;19943;-91
2021/09/01 01:58:40;;;;;;;;;;;9.40;99.90;;;;;;6191370;23;19920;-91
2021/09/01 02:01:28;;;;;;;;;;;9.40;99.90;;;;;;6193314;23;19983;-91
2021/09/01 02:04:15;;;;;;;;;;;9.50;99.90;;;;;;6199359;23;19932;-91
2021/09/01 02:07:04;;;;;;;;;;;9.60;99.90;;;;;;6209221;23;19916;-92
2021/09/01 02:09:51;;;;;;;;;;;9.70;99.90;;;;;;6167489;23;19957;-92
2021/09/01 02:12:39;;;;;;;;;;;9.70;99.90;;;;;;6181197;23;20085;-92
2021/09/01 02:15:26;;;;;;;;;;;9.70;99.90;;;;;;6193589;23;20027;-89
2021/09/01 02:18:16;;;;;;;;;;;9.50;99.90;;;;;;6195353;23;19938;-92
2021/09/01 02:21:04;;;;;;;;;;;9.40;99.90;;;;;;6173266;23;19943;-91
2021/09/01 02:23:54;;;;;;;;;;;9.40;99.90;;;;;;6173014;23;19948;-91
2021/09/01 02:26:41;;;;;;;;;;;9.40;99.90;;;;;;6192243;23;20064;-92
2021/09/01 02:29:28;;;;;;;;;;;9.40;99.90;;;;;;6226902;23;20080;-91
2021/09/01 02:32:17;;;;;;;;;;;9.40;99.90;;;;;;6226544;23;20284;-92
2021/09/01 02:35:05;;;;;;;;;;;9.40;99.90;;;;;;6227952;23;19974;-92
2021/09/01 02:37:55;;;;;;;;;;;9.30;99.90;;;;;;6205265;23;20015;-91
2021/09/01 02:40:42;;;;;;;;;;;9.30;99.90;;;;;;6224465;23;19943;-92
2021/09/01 02:43:29;;;;;;;;;;;9.20;99.90;;;;;;6223598;23;19923;-91
2021/09/01 02:46:17;;;;;;;;;;;9.20;99.90;;;;;;6224466;23;19982;-91
2021/09/01 02:49:04;;;;;;;;;;;9.10;99.90;;;;;;6226295;23;19946;-90
2021/09/01 02:51:52;;;;;;;;;;;9.10;99.90;;;;;;6224679;23;19920;-91
2021/09/01 02:54:39;;;;;;;;;;;9.10;99.90;;;;;;6207033;23;19970;-91
2021/09/01 02:57:27;;;;;;;;;;;9.10;99.90;;;;;;6208296;23;19924;-91
2021/09/01 03:00:14;;;;;;;;;;;9.20;99.90;;;;;;6230672;22;19920;-92
2021/09/01 03:03:07;;;;;;;;;;;9.20;99.90;;;;;;6226211;23;19920;-92
2021/09/01 03:05:55;;;;;;;;;;;9.20;99.90;;;;;;6226614;23;20166;-91
2021/09/01 03:08:42;;;;;;;;;;;9.10;99.90;;;;;;6229743;22;20278;-92
2021/09/01 03:11:35;;;;;;;;;;;9.10;99.90;;;;;;6207605;23;19970;-90
2021/09/01 03:14:22;;;;;;;;;;;9.10;99.90;;;;;;6231642;23;19920;-93
2021/09/01 03:17:10;;;;;;;;;;;9.00;99.90;;;;;;6232189;23;19924;-93
2021/09/01 03:19:57;;;;;;;;;;;9.00;99.90;;;;;;6237983;23;19927;-92
2021/09/01 03:22:46;;;;;;;;;;;8.90;99.90;;;;;;6239943;23;19935;-92
2021/09/01 03:25:34;;;;;;;;;;;8.90;99.90;;;;;;6218982;23;19920;-90
2021/09/01 03:28:23;;;;;;;;;;;8.90;99.90;;;;;;6218248;23;19908;-91
2021/09/01 03:31:11;;;;;;;;;;;8.90;99.90;;;;;;6241336;23;19916;-91
2021/09/01 03:33:58;;;;;;;;;;;8.80;99.90;;;;;;6220280;23;19989;-90
2021/09/01 03:36:50;;;;;;;;;;;8.70;99.90;;;;;;6240445;23;19908;-90
2021/09/01 03:39:37;;;;;;;;;;;8.70;99.90;;;;;;6240665;23;19920;-90
2021/09/01 03:42:24;;;;;;;;;;;8.60;99.90;;;;;;6192858;23;19920;-91
2021/09/01 03:45:13;;;;;;;;;;;8.50;99.90;;;;;;6231327;23;19920;-92
2021/09/01 03:48:01;;;;;;;;;;;8.50;99.90;;;;;;6227492;23;19919;-90
2021/09/01 03:50:50;;;;;;;;;;;8.50;99.90;;;;;;6226635;23;19964;-90
2021/09/01 03:53:37;;;;;;;;;;;8.50;99.90;;;;;;6202061;23;19978;-90
2021/09/01 03:56:26;;;;;;;;;;;8.50;99.90;;;;;;6225092;23;19920;-89
2021/09/01 03:59:19;;;;;;;;;;;8.40;99.90;;;;;;6225801;23;20038;-91
2021/09/01 04:06:04;;;;;;;;;;;8.50;99.90;;;;;;6226796;23;19908;-91
2021/09/01 04:09:14;;;;;;;;;;;;;;;;;;;;;
2021/09/01 04:12:09;;;;;;;;;;;8.50;99.90;;;;;;6225291;23;19920;-91
2021/09/01 04:15:02;;;;;;;;;;;8.50;99.90;;;;;;6203266;23;19920;-92
2021/09/01 04:18:00;;;;;;;;;;;8.50;99.90;;;;;;6223200;23;19939;-91
2021/09/01 04:20:48;;;;;;;;;;;8.40;99.90;;;;;;6200156;23;19920;-88
2021/09/01 04:23:41;;;;;;;;;;;8.40;99.90;;;;;;6240854;23;19908;-89
2021/09/01 04:26:30;;;;;;;;;;;8.40;99.90;;;;;;6221313;22;19930;-90
2021/09/01 04:29:24;;;;;;;;;;;8.40;99.90;;;;;;6239810;23;19908;-89
2021/09/01 04:32:26;;;;;;;;;;;8.30;99.90;;;;;;6237658;23;19908;-91
2021/09/01 04:35:16;;;;;;;;;;;8.20;99.90;;;;;;6197850;23;19919;-90
2021/09/01 04:38:07;;;;;;;;;;;8.10;99.90;;;;;;6226315;22;19920;-87
2021/09/01 04:40:58;;;;;;;;;;;8.00;99.90;;;;;;6228966;23;20305;-92
2021/09/01 04:43:48;;;;;;;;;;;7.90;99.90;;;;;;6206215;23;19995;-92
2021/09/01 04:46:35;;;;;;;;;;;7.90;99.90;;;;;;6215734;23;19924;-91
2021/09/01 04:49:22;;;;;;;;;;;7.90;99.90;;;;;;6198999;23;20323;-92
2021/09/01 04:52:10;;;;;;;;;;;;;;;;;;6177038;23;19935;-91
2021/09/01 04:54:59;;;;;;;;;;;7.90;99.90;;;;;;6215495;23;19920;-91
2021/09/01 04:57:48;;;;;;;;;;;7.90;99.90;;;;;;6198467;23;19920;-91
2021/09/01 05:00:36;;;;;;;;;;;8.00;99.90;;;;;;6218126;23;19930;-91
2021/09/01 05:03:23;;;;;;;;;;;8.00;99.90;;;;;;6198745;23;19955;-90
2021/09/01 05:06:13;;;;;;;;;;;8.10;99.90;;;;;;6221036;23;19946;-93
2021/09/01 05:09:00;;;;;;;;;;;8.10;99.90;;;;;;6150498;23;19928;-91
2021/09/01 05:11:47;;;;;;;;;;;8.20;99.90;;;;;;6218880;23;19919;-90
2021/09/01 05:14:35;;;;;;;;;;;8.20;99.90;;;;;;6217782;23;19924;-91
2021/09/01 05:17:22;;;;;;;;;;;8.30;99.90;;;;;;6194818;23;19920;-90
2021/09/01 05:20:09;;;;;;;;;;;8.40;99.90;;;;;;6218295;23;20411;-90
2021/09/01 05:23:00;;;;;;;;;;;8.40;99.90;;;;;;6218107;23;19920;-89
2021/09/01 05:25:56;;;;;;;;;;;8.50;99.90;;;;;;6198734;23;20183;-89
2021/09/01 05:28:47;;;;;;;;;;;8.50;99.90;;;;;;6184528;23;20050;-90
2021/09/01 05:31:34;;;;;;;;;;;8.50;99.90;;;;;;6148447;23;19922;-91
2021/09/01 05:34:22;;;;;;;;;;;8.60;99.90;;;;;;6067236;23;19937;-91
2021/09/01 05:37:11;;;;;;;;;;;8.70;99.90;;;;;;6064705;23;19922;-90
2021/09/01 05:39:59;;;;;;;;;;;8.70;99.90;;;;;;6067712;23;19945;-89
2021/09/01 05:42:49;;;;;;;;;;;8.80;99.90;;;;;;6065540;23;19928;-88
2021/09/01 05:45:47;;;;;;;;;;;8.90;99.90;;;;;;6068292;23;19993;-90
2021/09/01 05:56:36;;;;;;;;;;;9.10;99.90;;;;;;6004782;23;19993;-87
2021/09/01 05:59:27;;;;;;;;;;;9.20;99.90;;;;;;6047664;23;20281;-84
2021/09/01 06:06:38;;;;;;;;;;;9.40;99.90;;;;;;6123362;23;20340;-83
2021/09/01 06:09:44;;;;;;;;;;;9.40;99.90;;;;;;6070030;23;20284;-86
2021/09/01 06:12:31;;;;;;;;;;;9.50;99.90;;;;;;6094690;23;19928;-88
2021/09/01 06:15:18;;;;;;;;;;;9.60;99.90;;;;;;6110446;23;19921;-86
2021/09/01 06:18:09;;;;;;;;;;;9.70;99.90;;;;;;6124665;23;20012;-86
2021/09/01 06:20:59;;;;;;;;;;;9.90;99.90;;;;;;6122495;23;19921;-85
2021/09/01 06:23:46;;;;;;;;;;;10.00;99.90;;;;;;6101619;23;19984;-90
2021/09/01 06:26:33;;;;;;;;;;;10.10;99.90;;;;;;6126286;23;19921;-89
2021/09/01 06:29:21;;;;;;;;;;;10.30;99.90;;;;;;6099931;23;19927;-88
2021/09/01 06:32:11;;;;;;;;;;;10.60;99.90;;;;;;6123914;23;19980;-88
2021/09/01 06:34:59;;;;;;;;;;;11.10;99.90;;;;;;6122510;23;19921;-89
2021/09/01 06:37:46;;;;;;;;;;;11.30;99.90;;;;;;6100769;23;19921;-89
2021/09/01 06:40:39;;;;;;;;;;;11.20;99.90;;;;;;6084323;23;19942;-90
2021/09/01 06:43:28;;;;;;;;;;;11.40;99.90;;;;;;6142759;23;19922;-89
2021/09/01 06:46:15;;;;;;;;;;;11.70;99.90;;;;;;6147234;23;19926;-88
2021/09/01 06:49:02;;;;;;;;;;;12.10;99.90;;;;;;6065104;23;19922;-88
2021/09/01 06:51:50;;;;;;;;;;;12.30;99.90;;;;;;6144483;23;20345;-90
2021/09/01 06:54:43;;;;;;;;;;;12.70;99.90;;;;;;6066372;23;19921;-91
2021/09/01 06:57:30;;;;;;;;;;;12.70;99.90;;;;;;6063490;23;19933;-88
2021/09/01 07:00:19;;;;;;;;;;;12.90;99.90;;;;;;6066639;23;19922;-88
2021/09/01 07:03:07;;;;;;;;;;;13.00;99.90;;;;;;6148051;23;20205;-89
2021/09/01 07:06:00;;;;;;;;;;;12.90;99.90;;;;;;6148093;23;19933;-88
2021/09/01 07:08:47;;;;;;;;;;;13.00;99.90;;;;;;6069410;23;19921;-89
2021/09/01 07:11:35;;;;;;;;;;;12.90;99.90;;;;;;6064883;23;19933;-91
2021/09/01 07:14:23;;;;;;;;;;;13.30;99.90;;;;;;6063865;23;19921;-90
2021/09/01 07:17:10;;;;;;;;;;;13.40;99.90;;;;;;6067161;23;19996;-93
2021/09/01 07:20:00;;;;;;;;;;;13.70;99.90;;;;;;6066055;23;19925;-93
2021/09/01 07:22:55;;;;;;;;;;;13.70;99.90;;;;;;6064820;23;19948;-93
2021/09/01 07:25:42;;;;;;;;;;;13.80;99.90;;;;;;6066970;23;19921;-92
2021/09/01 07:28:30;;;;;;;;;;;13.90;99.90;;;;;;6147770;23;19944;-90
2021/09/01 07:31:19;;;;;;;;;;;14.00;99.90;;;;;;6065174;23;19926;-89
2021/09/01 07:34:06;;;;;;;;;;;14.40;99.90;;;;;;6070283;23;19933;-91
2021/09/01 07:36:53;;;;;;;;;;;14.60;99.90;;;;;;6068922;23;20245;-91
2021/09/01 07:39:42;;;;;;;;;;;15.00;99.90;;;;;;6068965;23;19921;-90
2021/09/01 07:42:30;;;;;;;;;;;15.50;99.90;;;;;;6151185;23;19922;-92
2021/09/01 07:45:18;;;;;;;;;;;15.90;99.90;;;;;;6070936;23;19922;-90
2021/09/01 07:48:09;;;;;;;;;;;16.00;99.90;;;;;;6069574;23;20021;-91
2021/09/01 07:50:59;;;;;;;;;;;16.00;99.90;;;;;;6071267;23;19936;-92
2021/09/01 07:53:47;;;;;;;;;;;16.30;99.90;;;;;;6079935;23;19921;-91
2021/09/01 07:56:34;;;;;;;;;;;16.40;99.90;;;;;;6081331;23;19997;-91
2021/09/01 07:59:23;;;;;;;;;;;16.40;99.90;;;;;;6081649;23;19921;-91
2021/09/01 08:02:13;;;;;;;;;;;16.50;99.90;;;;;;6165862;23;19925;-91
2021/09/01 08:05:03;;;;;;;;;;;16.80;99.90;;;;;;6087034;23;19936;-92
2021/09/01 08:07:51;;;;;;;;;;;17.20;99.90;;;;;;6084789;23;19941;-92
2021/09/01 08:10:38;;;;;;;;;;;18.00;99.90;;;;;;6086809;23;19967;-94
2021/09/01 08:13:25;;;;;;;;;;;18.70;99.90;;;;;;6084779;23;20221;-92
2021/09/01 08:16:12;;;;;;;;;;;19.40;99.90;;;;;;6078636;23;19922;-92
2021/09/01 08:19:00;;;;;;;;;;;20.20;99.90;;;;;;6075026;23;19925;-94
2021/09/01 08:39:10;;;;;;;;;;;21.70;99.90;;;;;;6255105;22;19924;31
2021/09/01 08:42:01;;;;;;;;;;;22.10;99.90;;;;;;6195669;23;19931;-87
2021/09/01 08:44:51;;;;;;;;;;;22.60;99.90;;;;;;6195312;23;19931;-89
2021/09/01 08:47:39;;;;;;;;;;;22.80;99.90;;;;;;6194973;23;19971;-90
2021/09/01 08:50:28;;;;;;;;;;;23.00;99.90;;;;;;6143802;23;20315;-90
2021/09/01 08:53:15;;;;;;;;;;;22.90;99.90;;;;;;6164022;23;19931;-90
2021/09/01 08:56:03;;;;;;;;;;;22.90;99.90;;;;;;6195489;23;20264;-91
2021/09/01 08:58:52;;;;;;;;;;;23.40;99.70;;;;;;6197246;23;19931;-93
2021/09/01 09:01:41;;;;;;;;;;;23.60;97.50;;;;;;6222536;23;19989;-91
2021/09/01 09:04:29;;;;;;;;;;;23.40;97.60;;;;;;6203544;23;20007;-91
2021/09/01 09:07:17;;;;;;;;;;;24.10;96.50;;;;;;6227966;23;19931;-93
2021/09/01 09:10:23;;;;;;;;;;;24.30;94.00;;;;;;6227049;23;19930;-90
2021/09/01 09:13:12;;;;;;;;;;;24.50;92.10;;;;;;6223386;23;19934;-92
2021/09/01 09:16:05;;;;;;;;;;;24.80;91.80;;;;;;6207239;23;19920;-92
2021/09/01 09:18:55;;;;;;;;;;;25.30;90.30;;;;;;6222412;23;19924;-92
2021/09/01 09:21:42;;;;;;;;;;;25.40;90.70;;;;;;6221706;23;19990;-92
2021/09/01 09:28:55;;;;;;;;;;;25.70;81.20;;;;;;5962449;23;20064;-92
2021/09/01 09:32:04;;;;;;;;;;;26.10;79.30;;;;;;5963041;23;20278;-91
2021/09/01 09:35:30;;;;;;;;;;;;;;;;;;;;;
2021/09/01 09:38:39;;;;;;;;;;;25.40;78.30;;;;;;5884802;24;19919;-91
2021/09/01 09:45:17;;;;;;;;;;;25.40;81.20;;;;;;6033935;23;19970;-91
2021/09/01 09:48:09;;;;;;;;;;;25.60;78.70;;;;;;6034946;23;19910;-92
2021/09/01 09:50:57;;;;;;;;;;;26.60;75.50;;;;;;6035543;23;19926;-92
2021/09/01 09:53:53;;;;;;;;;;;26.50;69.50;;;;;;6026616;23;19922;-91
2021/09/01 09:56:42;;;;;;;;;;;27.30;71.60;;;;;;6022223;23;19955;-90
2021/09/01 09:59:32;;;;;;;;;;;27.20;64.40;;;;;;6058961;23;19921;-92
2021/09/01 10:02:21;;;;;;;;;;;27.10;65.70;;;;;;6098602;23;19947;-92
2021/09/01 10:05:12;;;;;;;;;;;27.50;63.60;;;;;;6097974;23;19921;-91
2021/09/01 10:08:00;;;;;;;;;;;27.10;62.40;;;;;;6096870;23;19926;-88
2021/09/01 10:10:49;;;;;;;;;;;26.70;62.30;;;;;;6098389;23;19941;-92
2021/09/01 10:13:40;;;;;;;;;;;26.70;63.90;;;;;;6077712;23;19953;-90
2021/09/01 10:16:34;;;;;;;;;;;27.10;59.90;;;;;;6150741;23;19922;-88
2021/09/01 10:19:23;;;;;;;;;;;27.50;59.20;;;;;;6172702;23;19924;-91
2021/09/01 10:22:11;;;;;;;;;;;28.10;57.50;;;;;;6162291;23;19954;-89
2021/09/01 10:24:58;;;;;;;;;;;28.60;56.80;;;;;;6215530;23;19924;-89
2021/09/01 10:27:46;;;;;;;;;;;28.70;53.00;;;;;;6215569;23;19924;-92
2021/09/01 10:30:33;;;;;;;;;;;28.70;54.70;;;;;;6216165;23;19978;-89
2021/09/01 10:33:36;;;;;;;;;;;28.50;52.20;;;;;;6203488;23;19928;-88
2021/09/01 10:36:26;;;;;;;;;;;28.20;53.40;;;;;;6212948;23;19978;-88
2021/09/01 10:39:13;;;;;;;;;;;28.10;52.70;;;;;;6214441;23;20256;-89
2021/09/01 10:45:32;;;;;;;;;;;27.70;52.40;;;;;;6211486;23;19927;-90
2021/09/01 10:48:19;;;;;;;;;;;27.70;53.00;;;;;;6219556;23;20207;-91
2021/09/01 10:51:27;;;;;;;;;;;27.70;54.00;;;;;;6216927;23;19990;-90
2021/09/01 10:54:33;;;;;;;;;;;27.70;54.00;;;;;;6191069;23;19920;-91
2021/09/01 10:57:28;;;;;;;;;;;27.90;52.10;;;;;;6210797;23;20006;-89
2021/09/01 11:00:15;;;;;;;;;;;27.50;53.40;;;;;;6217124;23;19920;-90
2021/09/01 11:03:03;;;;;;;;;;;27.30;52.20;;;;;;6215504;23;19920;-89
2021/09/01 11:05:50;;;;;;;;;;;27.30;51.10;;;;;;6215276;23;19919;-89
2021/09/01 11:08:37;;;;;;;;;;;27.40;52.10;;;;;;6216447;23;19920;-89
2021/09/01 11:11:44;;;;;;;;;;;27.20;52.20;;;;;;6194514;23;19920;-88
2021/09/01 11:14:38;;;;;;;;;;;27.40;52.60;;;;;;6222520;23;19912;-93
2021/09/01 11:17:29;;;;;;;;;;;27.60;52.30;;;;;;6222958;23;19920;-92
2021/09/01 11:25:12;;;;;;;;;;;27.80;51.70;;;;;;6042484;23;23298;-93
2021/09/01 11:32:24;;;;;;;;;;;;;;;;;;;;;
2021/09/01 11:42:55;;;;;;;;;;;29.00;50.80;;;;;;5904720;24;19920;-93
2021/09/01 11:46:37;;;;;;;;;;;;;;;;;;;;;
2021/09/01 11:50:07;;;;;;;;;;;29.30;50.40;;;;;;5911818;24;19931;-92
2021/09/01 11:58:05;;;;;;;;;;;;;;;;;;;;;
2021/09/01 12:05:11;;;;;;;;;;;28.50;51.40;;;;;;5934266;24;19915;-91
2021/09/01 12:08:22;;;;;;;;;;;28.20;52.30;;;;;;5939454;24;19915;-92
2021/09/01 12:15:26;;;;;;;;;;;29.70;50.70;;;;;;6232856;22;19998;-91
2021/09/01 12:19:39;;;;;;;;;;;29.70;48.80;;;;;;6251730;23;19986;-91
2021/09/01 12:40:30;;;;;;;;;;;24.90;59.70;;;;;;6293218;22;19930;-91
2021/09/01 12:43:52;;;;;;;;;;;;;;;;;;;;;
2021/09/01 12:47:06;;;;;;;;;;;23.00;64.30;;;;;;6298080;22;19951;-89
2021/09/01 12:49:58;;;;;;;;;;;22.30;67.30;;;;;;6297231;22;19923;-90
2021/09/01 12:52:45;;;;;;;;;;;22.20;69.30;;;;;;6275227;22;19907;-86
2021/09/01 12:55:35;;;;;;;;;;;22.20;67.70;;;;;;6299420;22;19923;-90
2021/09/01 12:58:23;;;;;;;;;;;22.20;73.90;;;;;;6272369;22;19919;-87
2021/09/01 13:01:10;;;;;;;;;;;24.10;65.30;;;;;;6289529;22;19923;-90
2021/09/01 13:03:58;;;;;;;;;;;26.00;58.60;;;;;;6280802;22;19919;-88
2021/09/01 13:06:45;;;;;;;;;;;27.80;57.90;;;;;;6241726;22;19984;-90
2021/09/01 13:09:32;;;;;;;;;;;29.30;51.20;;;;;;6256006;22;19931;-92
2021/09/01 13:12:20;;;;;;;;;;;30.50;48.50;;;;;;6274033;22;19942;-90
2021/09/01 13:15:08;;;;;;;;;;;30.50;46.70;;;;;;6254674;22;20321;-88
2021/09/01 13:17:55;;;;;;;;;;;29.00;49.10;;;;;;6276870;22;19981;-89
2021/09/01 13:20:42;;;;;;;;;;;27.30;51.60;;;;;;6274019;22;19968;-90
2021/09/01 13:23:30;;;;;;;;;;;26.60;52.20;;;;;;6283196;22;19919;-89
2021/09/01 13:26:17;;;;;;;;;;;27.50;53.80;;;;;;6281181;22;19954;-89
2021/09/01 13:29:07;;;;;;;;;;;28.30;50.40;;;;;;6214906;22;19973;-89
2021/09/01 13:31:57;;;;;;;;;;;29.60;47.10;;;;;;6274899;22;20056;-88
2021/09/01 13:34:44;;;;;;;;;;;29.90;47.10;;;;;;6277409;22;19977;-92
2021/09/01 13:37:34;;;;;;;;;;;29.70;46.40;;;;;;6257088;22;19990;-90
2021/09/01 13:40:21;;;;;;;;;;;30.10;46.40;;;;;;6275169;22;19931;-89
2021/09/01 13:43:10;;;;;;;;;;;30.20;44.80;;;;;;6276458;22;20023;-92
2021/09/01 13:45:58;;;;;;;;;;;29.90;46.10;;;;;;6281725;22;19931;-90
2021/09/01 13:48:45;;;;;;;;;;;29.60;48.30;;;;;;6256732;22;19927;-92
2021/09/01 13:51:34;;;;;;;;;;;29.60;48.50;;;;;;6277894;22;20016;-92
2021/09/01 13:54:21;;;;;;;;;;;29.70;47.60;;;;;;6278347;22;19947;-89
2021/09/01 13:57:09;;;;;;;;;;;29.90;46.50;;;;;;6209629;22;19926;-90
2021/09/01 13:59:56;;;;;;;;;;;28.50;48.90;;;;;;6276288;22;19931;-90
2021/09/01 14:02:49;;;;;;;;;;;27.90;51.30;;;;;;6257916;22;19997;-92
2021/09/01 14:05:37;;;;;;;;;;;28.60;48.30;;;;;;6275934;22;20008;-91
2021/09/01 14:08:24;;;;;;;;;;;29.10;47.10;;;;;;6255281;22;19920;-89
2021/09/01 14:11:12;;;;;;;;;;;28.50;46.50;;;;;;6274408;22;19995;-90
2021/09/01 14:14:48;;;;;;;4.45;3.85;;;28.80;47.60;;;;;;5087089;27;20423;-91
2021/09/01 14:18:03;;;;;;;5.55;3.78;;;29.30;45.90;;;;;;5061151;28;20543;-92
2021/09/01 14:20:53;;;;;;;4.45;3.05;;;29.60;47.80;;;;;;5068380;28;20059;-91
2021/09/01 14:28:54;;;;;;;9.50;3.95;;;30.50;43.50;;;;;;5023969;28;20033;-92
2021/09/01 14:32:18;;;;;;;3.92;3.45;;;30.60;45.00;;;;;;4975022;28;20056;-92
2021/09/01 14:35:19;;;;;;;7.18;3.50;;;31.10;42.70;;;;;;4995894;28;20053;-90
2021/09/01 14:38:29;;;;;;;5.10;4.03;;;29.60;44.90;;;;;;5008202;28;20066;-93
2021/09/01 14:41:31;;;;;;;5.30;3.60;;;28.40;47.40;;;;;;4991548;28;20090;-90
2021/09/01 14:44:19;;;;;;;8.65;3.83;;;26.70;50.80;;;;;;4983887;28;20054;-91
2021/09/01 14:47:06;;;;;;;4.30;3.50;;;26.90;52.40;;;;;;4991656;28;20108;-91
2021/09/01 14:49:56;;;;;;;6.03;3.78;;;27.70;49.20;;;;;;4990193;28;20050;-92
2021/09/01 14:52:43;;;;;;;5.80;3.60;;;28.20;47.50;;;;;;5011936;28;20137;-93
2021/09/01 14:55:31;;;;;;;6.93;3.63;;;28.60;47.20;;;;;;5010235;28;20098;-93
2021/09/01 14:58:18;;;;;;;5.75;4.00;;;29.00;46.80;;;;;;5003604;28;20105;-92
2021/09/01 15:01:08;;;;;;;7.18;3.30;;;29.20;45.90;;;;;;5013133;28;20049;-90
2021/09/01 15:03:57;;;;;;;5.03;3.65;;;28.90;45.90;;;;;;5010107;28;20420;-91
2021/09/01 15:06:47;;;;;;;3.28;2.80;;;28.30;47.00;;;;;;5073814;28;20052;-91
2021/09/01 15:09:34;;;;;;;5.13;3.67;;;28.40;49.20;;;;;;5056788;28;20048;-91
2021/09/01 15:12:24;;;;;;;5.70;4.13;;;28.20;47.70;;;;;;5059318;28;20061;-90
2021/09/01 15:15:12;;;;;;;4.35;3.88;;;27.90;46.50;;;;;;5050565;28;20067;-90
2021/09/01 15:18:00;;;;;;;4.45;3.50;;;27.80;47.50;;;;;;5056926;28;20037;-92
2021/09/01 15:20:48;;;;;;;5.57;3.60;;;27.70;48.00;;;;;;5058183;28;20029;-92
2021/09/01 15:23:38;;;;;;;4.72;3.40;;;27.80;47.50;;;;;;5066154;28;20025;-92
2021/09/01 15:26:26;;;;;;;4.47;3.78;;;27.40;47.70;;;;;;5051563;28;20033;-92
2021/09/01 15:29:13;;;;;;;3.70;3.30;;;27.50;47.50;;;;;;5037246;28;20114;-92
2021/09/01 15:32:04;;;;;;;4.15;3.42;;;27.40;48.20;;;;;;5026907;28;20042;-92
2021/09/01 15:34:51;;;;;;;7.13;4.38;;;27.30;47.20;;;;;;5032623;28;20080;-92
2021/09/01 15:37:40;;;;;;;9.85;4.28;;;27.40;47.70;;;;;;5039055;28;20088;-91
2021/09/01 15:40:28;;;;;;;4.88;3.47;;;27.50;48.30;;;;;;5006915;28;20069;-91
2021/09/01 15:43:18;;;;;;;5.10;3.40;;;27.70;46.80;;;;;;4991891;28;20594;-94
2021/09/01 15:46:10;;;;;;;4.22;3.60;;;27.90;48.30;;;;;;5038460;28;20390;-92
2021/09/01 15:49:03;;;;;;;5.00;3.65;;;27.90;47.40;;;;;;5040346;28;20124;-93
2021/09/01 15:51:54;;;;;;;6.00;3.75;;;27.60;47.20;;;;;;5038096;28;20466;-92
2021/09/01 15:54:46;;;;;;;4.20;3.60;;;27.50;47.80;;;;;;5018293;28;20042;-91
2021/09/01 15:57:40;;;;;;;4.97;3.70;;;27.40;49.30;;;;;;5007492;28;20045;-93
2021/09/01 16:00:27;;;;;;;3.95;3.30;;;27.30;49.00;;;;;;5045248;28;20094;-90
2021/09/01 16:03:20;;;;;;;3.33;3.03;;;27.20;48.40;;;;;;5017538;28;20057;-89
2021/09/01 16:06:12;;;;;;;5.25;3.70;;;25.60;49.90;;;;;;5007236;28;20045;-88
2021/09/01 16:09:01;;;;;;;4.60;3.88;;;23.40;55.90;;;;;;5022650;28;20092;-90
2021/09/01 16:11:52;;;;;;;4.72;3.70;;;22.40;59.40;;;;;;5028516;28;20049;-91
2021/09/01 16:14:55;;;;;;;5.80;4.00;;;21.90;61.80;;;;;;5033070;28;20104;-89
2021/09/01 16:31:07;;;;;;;;;;;;;;;;;;;;;
2021/09/01 16:34:19;;;;;;;7.35;3.72;;;23.40;59.40;;;;;;4784521;29;20046;-91
2021/09/01 16:42:19;;;;;;;;;;;;;;;;;;;;;
2021/09/01 16:46:12;;;;;;;;;;;;;;;;;;;;;
2021/09/01 16:49:19;;;;;;;8.23;3.95;;;20.10;70.70;;;;;;4854251;29;20136;-89
2021/09/01 16:53:15;;;;;;;;;;;;;;;;;;;;;
2021/09/01 17:05:44;;;;;;;5.97;4.10;;;18.80;78.00;;;;;;4861672;29;20188;-92
2021/09/01 17:13:31;;;;;;;5.50;4.45;;;18.50;81.40;;;;;;4865156;29;20053;-92
2021/09/01 17:16:42;;;;;;;6.82;4.20;;;18.30;79.90;;;;;;4867927;29;20356;-92
2021/09/01 17:24:04;;;;;;;5.68;3.63;;;17.90;83.80;;;;;;4871817;28;20085;-90
2021/09/01 17:26:55;;;;;;;6.88;4.32;;;17.80;84.80;;;;;;4970391;28;20048;-91
2021/09/01 17:30:25;;;;;;;5.63;4.40;;;17.70;89.20;;;;;;4972644;28;20075;-94
2021/09/01 17:33:58;;;;;;;;;;;;;;;;;;;;;
2021/09/01 17:37:02;;;;;;;5.75;4.95;;;17.30;92.90;;;;;;4985073;28;20027;-93
2021/09/01 17:40:17;;;;;;;8.00;4.72;;;17.20;94.30;;;;;;4992626;28;20054;-92
2021/09/01 17:43:07;;;;;;;7.70;4.57;;;17.10;95.80;;;;;;4971630;28;20074;-87
2021/09/01 17:45:55;;;;;;;7.13;5.05;;;17.00;97.20;;;;;;4971593;28;20054;-90
2021/09/01 17:48:49;;;;;;;6.22;4.53;;;16.80;98.60;;;;;;5023633;28;20125;-90
2021/09/01 17:51:37;;;;;;;5.63;5.03;;;16.80;99.60;;;;;;5031172;28;20125;-89
2021/09/01 17:54:25;;;;;;;6.80;4.43;;;16.70;99.90;;;;;;5032207;28;20102;-89
2021/09/01 17:57:13;;;;;;;6.10;4.68;;;16.60;99.90;;;;;;5026214;28;20053;-91
2021/09/01 18:00:03;;;;;;;5.82;4.32;;;16.50;99.90;;;;;;5025201;28;20038;-90
2021/09/01 18:02:51;;;;;;;6.63;4.72;;;16.40;99.90;;;;;;5029723;28;20056;-91
2021/09/01 18:05:38;;;;;;;8.88;5.40;;;16.20;99.90;;;;;;5027569;28;20050;-91
2021/09/01 18:08:28;;;;;;;9.13;4.85;;;16.10;99.90;;;;;;5011106;28;20050;-91
2021/09/01 18:11:16;;;;;;;9.05;5.10;;;16.00;99.90;;;;;;5022728;28;20116;-90
2021/09/01 18:14:03;;;;;;;8.27;5.55;;;15.90;99.90;;;;;;5036252;28;20045;-89
2021/09/01 18:16:51;;;;;;;7.88;4.90;;;15.70;99.90;;;;;;5046277;28;20308;-88
2021/09/01 18:19:38;;;;;;;6.95;5.05;;;15.60;99.90;;;;;;5050679;28;20041;-92
2021/09/01 18:22:32;;;;;;;5.85;4.63;;;15.50;99.90;;;;;;5031743;28;20449;-90
2021/09/01 18:25:22;;;;;;;9.80;5.60;;;15.40;99.90;;;;;;5041129;28;20442;-89
2021/09/01 18:28:11;;;;;;;7.30;5.68;;;15.30;99.90;;;;;;5060687;28;20135;-92
2021/09/01 18:30:59;;;;;;;8.48;5.75;;;15.20;99.90;;;;;;5045543;28;20041;-90
2021/09/01 18:33:47;;;;;;;10.63;5.85;;;15.10;99.90;;;;;;5038784;28;20393;-90
2021/09/01 18:36:35;;;;;;;8.13;6.10;;;15.10;99.90;;;;;;5044455;28;20114;-89
2021/09/01 18:39:22;;;;;;;10.85;5.30;;;15.00;99.90;;;;;;5042618;28;20390;-89
2021/09/01 18:42:12;;;;;;;10.20;6.50;;;15.00;99.90;;;;;;5039053;28;20103;-91
2021/09/01 18:45:01;;;;;;;8.25;5.45;;;15.00;99.90;;;;;;5049820;28;20049;-91
2021/09/01 18:47:50;;;;;;;9.55;6.78;;;14.90;99.90;;;;;;5049387;28;20037;-92